Home > Products > Valid Products > TAF

000
FTUS44 KMAF 010100 AAA
TAFMAF
TAF AMD
KMAF 010104Z 0101/0124 12008KT 1/2SM FZFG OVC002
     FM011700 13008KT 6SM BR OVC004
     FM012000 12010KT P6SM SCT015=



000
FTUS44 KMAF 010100 AAA
TAFMAF
TAF AMD
KMAF 010104Z 0101/0124 12008KT 1/2SM FZFG OVC002
     FM011700 13008KT 6SM BR OVC004
     FM012000 12010KT P6SM SCT015=



000
FTUS44 KMAF 282300
TAFMAF
TAF
KMAF 282326Z 0100/0124 12008KT 2SM BR OVC003
     FM010400 13008KT 1SM BR OVC001
      TEMPO 0112/0116 1/2SM FG
     FM011700 13008KT 6SM BR OVC004
     FM012000 12010KT P6SM SCT015=



000
FTUS44 KMAF 282300
TAFMAF
TAF
KMAF 282326Z 0100/0124 12008KT 2SM BR OVC003
     FM010400 13008KT 1SM BR OVC001
      TEMPO 0112/0116 1/2SM FG
     FM011700 13008KT 6SM BR OVC004
     FM012000 12010KT P6SM SCT015=



000
FTUS44 KMAF 282000 AAA
TAFMAF
TAF AMD
KMAF 282012Z 2820/0118 12008KT 2SM BR OVC004
     FM010400 13008KT 1SM BR OVC004=



000
FTUS44 KMAF 282000 AAA
TAFMAF
TAF AMD
KMAF 282012Z 2820/0118 12008KT 2SM BR OVC004
     FM010400 13008KT 1SM BR OVC004=



000
FTUS44 KMAF 281700
TAFMAF
TAF
KMAF 281720Z 2818/0118 12008KT 3SM BR OVC004
     FM282300 13009KT P6SM OVC015
     FM010400 13008KT 3SM BR OVC004=



000
FTUS44 KMAF 281700
TAFMAF
TAF
KMAF 281720Z 2818/0118 12008KT 3SM BR OVC004
     FM282300 13009KT P6SM OVC015
     FM010400 13008KT 3SM BR OVC004=



000
FTUS44 KMAF 281200 AAB
TAFMAF
TAF AMD
KMAF 281233Z 2813/0112 08008KT 3SM BR OVC004
      TEMPO 2813/2816 -FZDZ
     FM281700 12008KT P6SM OVC014
     FM282200 12009KT P6SM OVC250
     FM010400 12006KT 3SM BR OVC002=



000
FTUS44 KMAF 281200 AAB
TAFMAF
TAF AMD
KMAF 281233Z 2813/0112 08008KT 3SM BR OVC004
      TEMPO 2813/2816 -FZDZ
     FM281700 12008KT P6SM OVC014
     FM282200 12009KT P6SM OVC250
     FM010400 12006KT 3SM BR OVC002=



000
FTUS44 KMAF 281200 AAA
TAFMAF
TAF AMD
KMAF 281202Z 2812/0112 08008KT 3SM BR OVC004
      TEMPO 2812/2816 2SM -FZDZ BR
     FM281700 12008KT P6SM OVC014
     FM282200 12009KT P6SM OVC250
     FM010400 12006KT 3SM BR OVC002=



000
FTUS44 KMAF 281200 AAA
TAFMAF
TAF AMD
KMAF 281202Z 2812/0112 08008KT 3SM BR OVC004
      TEMPO 2812/2816 2SM -FZDZ BR
     FM281700 12008KT P6SM OVC014
     FM282200 12009KT P6SM OVC250
     FM010400 12006KT 3SM BR OVC002=



000
FTUS44 KMAF 281100
TAFMAF
TAF
KMAF 281120Z 2812/0112 08008KT 3SM BR OVC004
      TEMPO 2812/2816 -FZDZ
     FM281700 12008KT P6SM OVC014
     FM282200 12009KT P6SM OVC250
     FM010400 12006KT 3SM BR OVC002=



000
FTUS44 KMAF 280900 AAA
TAFMAF
TAF AMD
KMAF 280945Z 2810/0106 07008KT 3SM BR OVC005
      TEMPO 2810/2814 2SM -FZDZ BR
     FM281500 08009KT P6SM OVC003
     FM281700 12008KT P6SM OVC014
     FM282200 12009KT P6SM OVC250
     FM010400 12006KT 3SM BR OVC001=



000
FTUS44 KMAF 280500
TAFMAF
TAF
KMAF 280524Z 2806/0106 09012KT 2SM -FZDZ BR OVC004
      TEMPO 2811/2815 1SM -FZDZ BR
     FM281800 14012KT P6SM OVC015
     FM282200 11008KT P6SM SCT020=



000
FTUS44 KMAF 280000 AAA
TAFMAF
TAF AMD
KMAF 280054Z 2801/2824 09012KT 3SM BR OVC006
      TEMPO 2801/2805 1SM -SN BR OVC004
     FM280600 09012KT 3SM -FZDZ BR OVC004
      TEMPO 2811/2815 1SM -FZDZ BR
     FM281800 15014KT P6SM OVC015=



000
FTUS44 KMAF 280000 AAA
TAFMAF
TAF AMD
KMAF 280054Z 2801/2824 09012KT 3SM BR OVC006
      TEMPO 2801/2805 1SM -SN BR OVC004
     FM280600 09012KT 3SM -FZDZ BR OVC004
      TEMPO 2811/2815 1SM -FZDZ BR
     FM281800 15014KT P6SM OVC015=



000
FTUS44 KMAF 272300
TAFMAF
TAF
KMAF 272329Z 2800/2824 07012KT 5SM BR OVC006
     FM280600 09012KT 3SM -FZDZ BR OVC004
      TEMPO 2811/2815 1SM -FZDZ BR
     FM281800 15014KT P6SM OVC015=



000
FTUS44 KMAF 272200 AAB
TAFMAF
TAF AMD
KMAF 272203Z 2722/2818 07014KT 6SM -SN BR OVC015
      TEMPO 2722/2802 1SM -FZDZSN BR OVC005
     FM280200 09010KT 3SM -FZDZSN BR OVC006
      TEMPO 2806/2810 1SM -FZDZSN BR OVC003=



000
FTUS44 KMAF 272200 AAB
TAFMAF
TAF AMD
KMAF 272203Z 2722/2818 07014KT 6SM -SN BR OVC015
      TEMPO 2722/2802 1SM -FZDZSN BR OVC005
     FM280200 09010KT 3SM -FZDZSN BR OVC006
      TEMPO 2806/2810 1SM -FZDZSN BR OVC003=



000
FTUS44 KMAF 271800 AAA
TAFMAF
TAF AMD
KMAF 271851Z 2719/2818 07014KT 3SM -SNPL BR OVC015
      TEMPO 2719/2723 1SM -FZDZSNPL BR OVC005
     FM280400 09010KT 3SM -FZDZSNPL BR OVC009
      TEMPO 2804/2808 1SM -FZDZSNPL BR OVC003=



000
FTUS44 KMAF 271800 AAA
TAFMAF
TAF AMD
KMAF 271851Z 2719/2818 07014KT 3SM -SNPL BR OVC015
      TEMPO 2719/2723 1SM -FZDZSNPL BR OVC005
     FM280400 09010KT 3SM -FZDZSNPL BR OVC009
      TEMPO 2804/2808 1SM -FZDZSNPL BR OVC003=



000
FTUS44 KMAF 271700
TAFMAF
TAF
KMAF 271738Z 2718/2818 07014KT 3SM -SNPL BR OVC010
      TEMPO 2718/2722 1SM -FZDZSNPL BR OVC005
     FM280400 09010KT 3SM -FZDZSNPL BR OVC009
      TEMPO 2804/2808 1SM -FZDZSNPL BR OVC003=



000
FTUS44 KMAF 271700
TAFMAF
TAF
KMAF 271738Z 2718/2818 07014KT 3SM -SNPL BR OVC010
      TEMPO 2718/2722 1SM -FZDZSNPL BR OVC005
     FM280400 09010KT 3SM -FZDZSNPL BR OVC009
      TEMPO 2804/2808 1SM -FZDZSNPL BR OVC003=



000
FTUS44 KMAF 271400 AAB
TAFMAF
TAF AMD
KMAF 271432Z 2715/2812 06014KT 3SM -FZDZSN BR OVC015
      TEMPO 2715/2718 1SM -FZDZSN BR OVC005
     FM271800 09012KT P6SM OVC015=



000
FTUS44 KMAF 271400 AAB
TAFMAF
TAF AMD
KMAF 271432Z 2715/2812 06014KT 3SM -FZDZSN BR OVC015
      TEMPO 2715/2718 1SM -FZDZSN BR OVC005
     FM271800 09012KT P6SM OVC015=



000
FTUS44 KMAF 271300 AAA
TAFMAF
TAF AMD
KMAF 271323Z 2713/2812 06012KT 3SM -FZDZSN BR OVC015
      TEMPO 2713/2717 1SM -FZDZSN BR OVC007
     FM271700 09012KT P6SM OVC015=



000
FTUS44 KMAF 271300 AAA
TAFMAF
TAF AMD
KMAF 271323Z 2713/2812 06012KT 3SM -FZDZSN BR OVC015
      TEMPO 2713/2717 1SM -FZDZSN BR OVC007
     FM271700 09012KT P6SM OVC015=



000
FTUS44 KMAF 271100
TAFMAF
TAF
KMAF 271132Z 2712/2812 06015KT 6SM BR OVC015
      TEMPO 2712/2715 1SM -FZDZ FEW007 OVC012
     FM271700 09012KT P6SM OVC015=



000
FTUS44 KMAF 270700 AAA
TAFMAF
TAF AMD
KMAF 270752Z 2708/2806 07015G22KT 6SM -SN OVC020
      TEMPO 2708/2712 1SM -SN BR OVC012
     FM271600 09012KT P6SM OVC015=



000
FTUS44 KMAF 262300
TAFMAF
TAF
KMAF 262321Z 2700/2724 06015G22KT P6SM OVC025
     FM270900 07015G22KT 6SM -SN OVC015=



000
FTUS44 KMAF 262300
TAFMAF
TAF
KMAF 262321Z 2700/2724 06015G22KT P6SM OVC025
     FM270900 07015G22KT 6SM -SN OVC015=



000
FTUS44 KMAF 261700
TAFMAF
TAF
KMAF 261720Z 2618/2718 05016G25KT P6SM OVC010
     FM262000 06015G22KT P6SM OVC025
     FM270000 07018G25KT 3SM -SN OVC015=



000
FTUS44 KMAF 261700
TAFMAF
TAF
KMAF 261720Z 2618/2718 05016G25KT P6SM OVC010
     FM262000 06015G22KT P6SM OVC025
     FM270000 07018G25KT 3SM -SN OVC015=



000
FTUS44 KMAF 261400 AAA
TAFMAF
TAF AMD
KMAF 261412Z 2614/2712 03018G25KT P6SM OVC010
     FM262000 05015G22KT P6SM OVC025
     FM270000 07018KT P6SM OVC020 PROB30 2708/2712 5SM -SHSN=



000
FTUS44 KMAF 261100
TAFMAF
TAF
KMAF 261128Z 2612/2712 03020G28KT P6SM SCT100
     FM261300 03020G28KT P6SM OVC030
     FM261800 05015G22KT P6SM OVC025
     FM270000 07018KT P6SM OVC020 PROB30 2708/2712 5SM -SHSN=



000
FTUS44 KMAF 260500
TAFMAF
TAF
KMAF 260526Z 2606/2706 03010KT P6SM SCT250
     FM260700 03020G28KT P6SM BKN110 BKN250
     FM261100 03020G28KT P6SM OVC010
     FM261800 05015G22KT P6SM OVC025=



000
FTUS44 KMAF 260500
TAFMAF
TAF
KMAF 260526Z 2606/2706 03010KT P6SM SCT250
     FM260700 03020G28KT P6SM BKN110 BKN250
     FM261100 03020G28KT P6SM OVC010
     FM261800 05015G22KT P6SM OVC025=



    US Dept of Commerce
    National Oceanic and Atmospheric Administration
    National Weather Service
    1325 East West Highway
    Silver Spring, MD 20910
    Page Author: NWS Internet Services Team
Disclaimer
Information Quality
Credits
Glossary
Privacy Policy
Freedom of Information Act (FOIA)
About Us
Career Opportunities